sensor_id;sensor_type;location;lat;lon;timestamp;P1;durP1;ratioP1;P2;durP2;ratioP2
52934;SDS011;38802;50.198;19.796;2022-12-24T00:01:35;7.90;;;7.00;;
52934;SDS011;38802;50.198;19.796;2022-12-24T00:04:04;8.80;;;6.50;;
52934;SDS011;38802;50.198;19.796;2022-12-24T00:06:32;9.20;;;6.50;;
52934;SDS011;38802;50.198;19.796;2022-12-24T00:09:00;7.50;;;6.70;;
52934;SDS011;38802;50.198;19.796;2022-12-24T00:11:30;8.20;;;6.70;;
52934;SDS011;38802;50.198;19.796;2022-12-24T00:13:58;8.30;;;7.30;;
52934;SDS011;38802;50.198;19.796;2022-12-24T00:16:26;10.40;;;7.90;;
52934;SDS011;38802;50.198;19.796;2022-12-24T00:18:55;7.60;;;6.90;;
52934;SDS011;38802;50.198;19.796;2022-12-24T00:21:23;9.50;;;7.50;;
52934;SDS011;38802;50.198;19.796;2022-12-24T00:23:51;8.20;;;7.30;;
52934;SDS011;38802;50.198;19.796;2022-12-24T00:26:19;7.70;;;7.00;;
52934;SDS011;38802;50.198;19.796;2022-12-24T00:28:48;8.70;;;7.70;;
52934;SDS011;38802;50.198;19.796;2022-12-24T00:31:17;7.80;;;7.10;;
52934;SDS011;38802;50.198;19.796;2022-12-24T00:33:46;8.00;;;6.00;;
52934;SDS011;38802;50.198;19.796;2022-12-24T00:36:14;7.30;;;6.60;;
52934;SDS011;38802;50.198;19.796;2022-12-24T00:38:44;6.30;;;5.70;;
52934;SDS011;38802;50.198;19.796;2022-12-24T00:41:13;9.70;;;6.50;;
52934;SDS011;38802;50.198;19.796;2022-12-24T00:43:56;8.20;;;7.40;;
52934;SDS011;38802;50.198;19.796;2022-12-24T00:46:26;8.10;;;7.20;;
52934;SDS011;38802;50.198;19.796;2022-12-24T00:48:55;9.10;;;6.60;;
52934;SDS011;38802;50.198;19.796;2022-12-24T00:51:24;6.50;;;5.90;;
52934;SDS011;38802;50.198;19.796;2022-12-24T00:53:52;8.30;;;7.20;;
52934;SDS011;38802;50.198;19.796;2022-12-24T00:56:20;8.50;;;7.80;;
52934;SDS011;38802;50.198;19.796;2022-12-24T00:58:48;7.70;;;6.90;;
52934;SDS011;38802;50.198;19.796;2022-12-24T01:01:17;9.50;;;8.60;;
52934;SDS011;38802;50.198;19.796;2022-12-24T01:03:46;8.40;;;7.50;;
52934;SDS011;38802;50.198;19.796;2022-12-24T01:06:15;7.80;;;7.00;;
52934;SDS011;38802;50.198;19.796;2022-12-24T01:08:48;9.30;;;8.00;;
52934;SDS011;38802;50.198;19.796;2022-12-24T01:11:18;8.80;;;7.90;;
52934;SDS011;38802;50.198;19.796;2022-12-24T01:13:46;9.60;;;8.10;;
52934;SDS011;38802;50.198;19.796;2022-12-24T01:16:15;7.80;;;7.10;;
52934;SDS011;38802;50.198;19.796;2022-12-24T01:18:46;9.90;;;9.00;;
52934;SDS011;38802;50.198;19.796;2022-12-24T01:21:14;9.60;;;8.70;;
52934;SDS011;38802;50.198;19.796;2022-12-24T01:23:45;8.10;;;7.40;;
52934;SDS011;38802;50.198;19.796;2022-12-24T01:26:14;11.90;;;9.40;;
52934;SDS011;38802;50.198;19.796;2022-12-24T01:28:42;8.80;;;8.00;;
52934;SDS011;38802;50.198;19.796;2022-12-24T01:31:15;10.50;;;9.50;;
52934;SDS011;38802;50.198;19.796;2022-12-24T01:33:45;8.50;;;7.70;;
52934;SDS011;38802;50.198;19.796;2022-12-24T01:36:15;10.20;;;9.30;;
52934;SDS011;38802;50.198;19.796;2022-12-24T01:38:44;9.40;;;8.50;;
52934;SDS011;38802;50.198;19.796;2022-12-24T01:41:13;11.80;;;9.10;;
52934;SDS011;38802;50.198;19.796;2022-12-24T01:44:18;11.70;;;10.70;;
52934;SDS011;38802;50.198;19.796;2022-12-24T01:49:58;13.00;;;11.60;;
52934;SDS011;38802;50.198;19.796;2022-12-24T01:52:32;13.20;;;12.00;;
52934;SDS011;38802;50.198;19.796;2022-12-24T01:55:03;15.20;;;13.30;;
52934;SDS011;38802;50.198;19.796;2022-12-24T01:57:39;15.00;;;13.60;;
52934;SDS011;38802;50.198;19.796;2022-12-24T02:00:13;12.70;;;11.30;;
52934;SDS011;38802;50.198;19.796;2022-12-24T02:02:43;9.80;;;8.80;;
52934;SDS011;38802;50.198;19.796;2022-12-24T02:05:22;11.10;;;9.90;;
52934;SDS011;38802;50.198;19.796;2022-12-24T02:07:54;11.70;;;10.40;;
52934;SDS011;38802;50.198;19.796;2022-12-24T02:10:23;10.60;;;9.10;;
52934;SDS011;38802;50.198;19.796;2022-12-24T02:12:51;10.20;;;9.30;;
52934;SDS011;38802;50.198;19.796;2022-12-24T02:15:20;11.20;;;9.40;;
52934;SDS011;38802;50.198;19.796;2022-12-24T02:26:25;8.80;;;7.90;;
52934;SDS011;38802;50.198;19.796;2022-12-24T02:32:10;7.70;;;7.00;;
52934;SDS011;38802;50.198;19.796;2022-12-24T02:34:50;5.40;;;4.90;;
52934;SDS011;38802;50.198;19.796;2022-12-24T02:37:27;6.20;;;5.30;;
52934;SDS011;38802;50.198;19.796;2022-12-24T02:40:08;6.20;;;5.60;;
52934;SDS011;38802;50.198;19.796;2022-12-24T02:42:45;5.80;;;5.30;;
52934;SDS011;38802;50.198;19.796;2022-12-24T02:45:19;6.40;;;5.90;;
52934;SDS011;38802;50.198;19.796;2022-12-24T02:47:50;5.60;;;5.10;;
52934;SDS011;38802;50.198;19.796;2022-12-24T02:50:19;6.60;;;6.10;;
52934;SDS011;38802;50.198;19.796;2022-12-24T02:52:48;6.40;;;5.80;;
52934;SDS011;38802;50.198;19.796;2022-12-24T02:55:24;5.80;;;5.30;;
52934;SDS011;38802;50.198;19.796;2022-12-24T03:00:53;5.50;;;5.00;;
52934;SDS011;38802;50.198;19.796;2022-12-24T03:09:12;4.30;;;3.90;;
52934;SDS011;38802;50.198;19.796;2022-12-24T03:11:49;5.90;;;5.40;;
52934;SDS011;38802;50.198;19.796;2022-12-24T03:14:25;4.70;;;4.30;;
52934;SDS011;38802;50.198;19.796;2022-12-24T03:16:58;5.40;;;4.00;;
52934;SDS011;38802;50.198;19.796;2022-12-24T03:19:29;4.00;;;3.70;;
52934;SDS011;38802;50.198;19.796;2022-12-24T03:21:58;3.60;;;3.40;;
52934;SDS011;38802;50.198;19.796;2022-12-24T03:24:30;3.30;;;3.00;;
52934;SDS011;38802;50.198;19.796;2022-12-24T03:26:58;2.70;;;2.50;;
52934;SDS011;38802;50.198;19.796;2022-12-24T03:29:27;2.90;;;2.50;;
52934;SDS011;38802;50.198;19.796;2022-12-24T03:31:58;2.10;;;1.90;;
52934;SDS011;38802;50.198;19.796;2022-12-24T03:34:28;2.70;;;2.50;;
52934;SDS011;38802;50.198;19.796;2022-12-24T03:36:57;2.20;;;2.10;;
52934;SDS011;38802;50.198;19.796;2022-12-24T03:39:25;2.10;;;2.00;;
52934;SDS011;38802;50.198;19.796;2022-12-24T03:41:53;1.90;;;1.80;;
52934;SDS011;38802;50.198;19.796;2022-12-24T03:44:21;2.20;;;2.00;;
52934;SDS011;38802;50.198;19.796;2022-12-24T03:46:49;2.80;;;2.60;;
52934;SDS011;38802;50.198;19.796;2022-12-24T03:49:17;2.20;;;2.10;;
52934;SDS011;38802;50.198;19.796;2022-12-24T03:51:45;2.00;;;1.80;;
52934;SDS011;38802;50.198;19.796;2022-12-24T03:54:13;2.70;;;2.50;;
52934;SDS011;38802;50.198;19.796;2022-12-24T03:56:41;2.40;;;2.20;;
52934;SDS011;38802;50.198;19.796;2022-12-24T03:59:09;2.60;;;2.30;;
52934;SDS011;38802;50.198;19.796;2022-12-24T04:01:37;2.80;;;2.60;;
52934;SDS011;38802;50.198;19.796;2022-12-24T04:04:06;2.90;;;2.70;;
52934;SDS011;38802;50.198;19.796;2022-12-24T04:06:34;3.00;;;2.70;;
52934;SDS011;38802;50.198;19.796;2022-12-24T04:09:02;2.90;;;2.70;;
52934;SDS011;38802;50.198;19.796;2022-12-24T04:11:32;2.90;;;2.50;;
52934;SDS011;38802;50.198;19.796;2022-12-24T04:14:00;2.50;;;2.30;;
52934;SDS011;38802;50.198;19.796;2022-12-24T04:16:28;3.90;;;3.60;;
52934;SDS011;38802;50.198;19.796;2022-12-24T04:18:56;4.10;;;3.80;;
52934;SDS011;38802;50.198;19.796;2022-12-24T04:21:24;5.00;;;4.60;;
52934;SDS011;38802;50.198;19.796;2022-12-24T04:23:52;5.60;;;5.10;;
52934;SDS011;38802;50.198;19.796;2022-12-24T04:26:21;6.20;;;5.70;;
52934;SDS011;38802;50.198;19.796;2022-12-24T04:28:49;6.40;;;5.90;;
52934;SDS011;38802;50.198;19.796;2022-12-24T04:31:17;7.60;;;7.00;;
52934;SDS011;38802;50.198;19.796;2022-12-24T04:33:45;7.20;;;6.60;;
52934;SDS011;38802;50.198;19.796;2022-12-24T04:36:14;8.10;;;7.50;;
52934;SDS011;38802;50.198;19.796;2022-12-24T04:38:44;9.70;;;7.60;;
52934;SDS011;38802;50.198;19.796;2022-12-24T04:41:15;8.80;;;8.00;;
52934;SDS011;38802;50.198;19.796;2022-12-24T04:43:51;8.00;;;7.40;;
52934;SDS011;38802;50.198;19.796;2022-12-24T04:46:22;8.80;;;8.10;;
52934;SDS011;38802;50.198;19.796;2022-12-24T04:48:52;9.20;;;8.40;;
52934;SDS011;38802;50.198;19.796;2022-12-24T04:51:21;9.40;;;8.50;;
52934;SDS011;38802;50.198;19.796;2022-12-24T04:53:51;10.00;;;9.10;;
52934;SDS011;38802;50.198;19.796;2022-12-24T04:56:21;9.90;;;9.10;;
52934;SDS011;38802;50.198;19.796;2022-12-24T04:58:51;9.70;;;8.90;;
52934;SDS011;38802;50.198;19.796;2022-12-24T05:01:21;11.10;;;10.20;;
52934;SDS011;38802;50.198;19.796;2022-12-24T05:03:51;10.70;;;9.80;;
52934;SDS011;38802;50.198;19.796;2022-12-24T05:06:21;11.00;;;10.00;;
52934;SDS011;38802;50.198;19.796;2022-12-24T05:08:54;11.90;;;10.80;;
52934;SDS011;38802;50.198;19.796;2022-12-24T05:11:23;11.30;;;10.40;;
52934;SDS011;38802;50.198;19.796;2022-12-24T05:13:51;10.50;;;9.60;;
52934;SDS011;38802;50.198;19.796;2022-12-24T05:16:21;11.70;;;10.80;;
52934;SDS011;38802;50.198;19.796;2022-12-24T05:18:51;10.80;;;9.90;;
52934;SDS011;38802;50.198;19.796;2022-12-24T05:21:20;13.30;;;12.00;;
52934;SDS011;38802;50.198;19.796;2022-12-24T05:23:50;11.40;;;10.40;;
52934;SDS011;38802;50.198;19.796;2022-12-24T05:29:21;14.50;;;13.00;;
52934;SDS011;38802;50.198;19.796;2022-12-24T05:31:49;11.90;;;10.90;;
52934;SDS011;38802;50.198;19.796;2022-12-24T05:34:18;12.10;;;10.90;;
52934;SDS011;38802;50.198;19.796;2022-12-24T05:36:46;12.40;;;11.30;;
52934;SDS011;38802;50.198;19.796;2022-12-24T05:39:14;12.10;;;11.10;;
52934;SDS011;38802;50.198;19.796;2022-12-24T05:41:45;12.90;;;11.70;;
52934;SDS011;38802;50.198;19.796;2022-12-24T05:44:13;13.00;;;11.80;;
52934;SDS011;38802;50.198;19.796;2022-12-24T05:46:43;13.50;;;12.20;;
52934;SDS011;38802;50.198;19.796;2022-12-24T05:49:12;14.20;;;12.90;;
52934;SDS011;38802;50.198;19.796;2022-12-24T05:51:40;14.00;;;12.80;;
52934;SDS011;38802;50.198;19.796;2022-12-24T05:54:09;14.90;;;12.80;;
52934;SDS011;38802;50.198;19.796;2022-12-24T05:56:37;14.30;;;13.00;;
52934;SDS011;38802;50.198;19.796;2022-12-24T05:59:06;14.10;;;12.80;;
52934;SDS011;38802;50.198;19.796;2022-12-24T06:01:34;15.70;;;13.80;;
52934;SDS011;38802;50.198;19.796;2022-12-24T06:04:02;15.40;;;13.80;;
52934;SDS011;38802;50.198;19.796;2022-12-24T06:06:31;15.00;;;13.50;;
52934;SDS011;38802;50.198;19.796;2022-12-24T06:08:59;13.20;;;12.00;;
52934;SDS011;38802;50.198;19.796;2022-12-24T06:11:28;12.90;;;11.70;;
52934;SDS011;38802;50.198;19.796;2022-12-24T06:13:56;13.60;;;12.20;;
52934;SDS011;38802;50.198;19.796;2022-12-24T06:16:24;13.40;;;12.20;;
52934;SDS011;38802;50.198;19.796;2022-12-24T06:18:53;14.00;;;12.80;;
52934;SDS011;38802;50.198;19.796;2022-12-24T06:21:22;14.10;;;12.90;;
52934;SDS011;38802;50.198;19.796;2022-12-24T06:23:50;15.50;;;14.00;;
52934;SDS011;38802;50.198;19.796;2022-12-24T06:26:19;13.80;;;12.40;;
52934;SDS011;38802;50.198;19.796;2022-12-24T06:28:49;15.70;;;14.10;;
52934;SDS011;38802;50.198;19.796;2022-12-24T06:31:20;16.10;;;14.50;;
52934;SDS011;38802;50.198;19.796;2022-12-24T06:33:50;14.30;;;13.00;;
52934;SDS011;38802;50.198;19.796;2022-12-24T06:36:20;15.40;;;13.80;;
52934;SDS011;38802;50.198;19.796;2022-12-24T06:38:51;15.50;;;13.90;;
52934;SDS011;38802;50.198;19.796;2022-12-24T06:41:20;13.60;;;11.90;;
52934;SDS011;38802;50.198;19.796;2022-12-24T06:43:51;15.00;;;13.60;;
52934;SDS011;38802;50.198;19.796;2022-12-24T06:46:20;15.00;;;13.50;;
52934;SDS011;38802;50.198;19.796;2022-12-24T06:48:49;13.30;;;12.00;;
52934;SDS011;38802;50.198;19.796;2022-12-24T06:51:17;13.70;;;11.70;;
52934;SDS011;38802;50.198;19.796;2022-12-24T06:53:48;12.50;;;11.50;;
52934;SDS011;38802;50.198;19.796;2022-12-24T06:56:19;14.00;;;12.70;;
52934;SDS011;38802;50.198;19.796;2022-12-24T06:58:48;12.80;;;11.60;;
52934;SDS011;38802;50.198;19.796;2022-12-24T07:01:17;13.20;;;12.10;;
52934;SDS011;38802;50.198;19.796;2022-12-24T07:03:47;15.20;;;13.70;;
52934;SDS011;38802;50.198;19.796;2022-12-24T07:06:17;14.10;;;12.70;;
52934;SDS011;38802;50.198;19.796;2022-12-24T07:08:55;15.00;;;12.50;;
52934;SDS011;38802;50.198;19.796;2022-12-24T07:11:24;12.40;;;11.20;;
52934;SDS011;38802;50.198;19.796;2022-12-24T07:13:53;12.40;;;11.40;;
52934;SDS011;38802;50.198;19.796;2022-12-24T07:16:21;12.90;;;11.60;;
52934;SDS011;38802;50.198;19.796;2022-12-24T07:18:49;12.90;;;11.30;;
52934;SDS011;38802;50.198;19.796;2022-12-24T07:21:17;13.30;;;12.00;;
52934;SDS011;38802;50.198;19.796;2022-12-24T07:23:46;13.20;;;11.80;;
52934;SDS011;38802;50.198;19.796;2022-12-24T07:26:14;13.00;;;11.70;;
52934;SDS011;38802;50.198;19.796;2022-12-24T07:28:42;13.40;;;12.10;;
52934;SDS011;38802;50.198;19.796;2022-12-24T07:31:10;12.80;;;11.40;;
52934;SDS011;38802;50.198;19.796;2022-12-24T07:33:38;12.80;;;11.50;;
52934;SDS011;38802;50.198;19.796;2022-12-24T07:36:07;13.50;;;12.30;;
52934;SDS011;38802;50.198;19.796;2022-12-24T07:38:37;12.10;;;11.00;;
52934;SDS011;38802;50.198;19.796;2022-12-24T07:41:05;12.20;;;11.20;;
52934;SDS011;38802;50.198;19.796;2022-12-24T07:43:33;13.40;;;11.20;;
52934;SDS011;38802;50.198;19.796;2022-12-24T07:46:01;11.70;;;10.70;;
52934;SDS011;38802;50.198;19.796;2022-12-24T07:48:30;11.80;;;10.70;;
52934;SDS011;38802;50.198;19.796;2022-12-24T07:50:59;11.70;;;10.60;;
52934;SDS011;38802;50.198;19.796;2022-12-24T07:53:28;11.30;;;10.30;;
52934;SDS011;38802;50.198;19.796;2022-12-24T07:55:57;11.80;;;10.70;;
52934;SDS011;38802;50.198;19.796;2022-12-24T07:58:26;10.90;;;9.90;;
52934;SDS011;38802;50.198;19.796;2022-12-24T08:00:58;11.30;;;10.40;;
52934;SDS011;38802;50.198;19.796;2022-12-24T08:03:26;11.20;;;10.00;;
52934;SDS011;38802;50.198;19.796;2022-12-24T08:05:55;11.60;;;10.50;;
52934;SDS011;38802;50.198;19.796;2022-12-24T08:08:25;11.10;;;9.80;;
52934;SDS011;38802;50.198;19.796;2022-12-24T08:10:53;11.00;;;9.90;;
52934;SDS011;38802;50.198;19.796;2022-12-24T08:13:26;10.40;;;9.50;;
52934;SDS011;38802;50.198;19.796;2022-12-24T08:15:55;10.10;;;9.10;;
52934;SDS011;38802;50.198;19.796;2022-12-24T08:18:23;11.40;;;10.30;;
52934;SDS011;38802;50.198;19.796;2022-12-24T08:20:51;10.20;;;9.30;;
52934;SDS011;38802;50.198;19.796;2022-12-24T08:23:20;10.50;;;9.50;;
52934;SDS011;38802;50.198;19.796;2022-12-24T08:25:48;11.00;;;9.90;;
52934;SDS011;38802;50.198;19.796;2022-12-24T08:28:17;11.80;;;9.50;;
52934;SDS011;38802;50.198;19.796;2022-12-24T08:30:48;10.40;;;9.40;;
52934;SDS011;38802;50.198;19.796;2022-12-24T08:33:17;9.60;;;8.80;;
52934;SDS011;38802;50.198;19.796;2022-12-24T08:35:49;10.50;;;9.40;;
52934;SDS011;38802;50.198;19.796;2022-12-24T08:38:19;10.00;;;9.00;;
52934;SDS011;38802;50.198;19.796;2022-12-24T08:40:47;11.50;;;10.30;;
52934;SDS011;38802;50.198;19.796;2022-12-24T08:43:17;13.00;;;9.70;;
52934;SDS011;38802;50.198;19.796;2022-12-24T08:45:46;11.00;;;9.30;;
52934;SDS011;38802;50.198;19.796;2022-12-24T08:48:17;8.90;;;8.10;;
52934;SDS011;38802;50.198;19.796;2022-12-24T08:50:45;11.10;;;9.30;;
52934;SDS011;38802;50.198;19.796;2022-12-24T08:53:13;12.50;;;9.90;;
52934;SDS011;38802;50.198;19.796;2022-12-24T08:55:41;8.70;;;7.90;;
52934;SDS011;38802;50.198;19.796;2022-12-24T08:58:10;9.60;;;8.60;;
52934;SDS011;38802;50.198;19.796;2022-12-24T09:00:38;8.80;;;7.90;;
52934;SDS011;38802;50.198;19.796;2022-12-24T09:03:09;9.70;;;8.60;;
52934;SDS011;38802;50.198;19.796;2022-12-24T09:05:41;8.00;;;7.30;;
52934;SDS011;38802;50.198;19.796;2022-12-24T09:08:10;8.30;;;6.70;;
52934;SDS011;38802;50.198;19.796;2022-12-24T09:10:38;8.00;;;7.00;;
52934;SDS011;38802;50.198;19.796;2022-12-24T09:13:06;7.40;;;6.70;;
52934;SDS011;38802;50.198;19.796;2022-12-24T09:15:34;9.30;;;7.40;;
52934;SDS011;38802;50.198;19.796;2022-12-24T09:18:02;13.20;;;8.50;;
52934;SDS011;38802;50.198;19.796;2022-12-24T09:20:30;12.20;;;8.70;;
52934;SDS011;38802;50.198;19.796;2022-12-24T09:22:58;12.20;;;8.80;;
52934;SDS011;38802;50.198;19.796;2022-12-24T09:25:27;16.80;;;10.40;;
52934;SDS011;38802;50.198;19.796;2022-12-24T09:27:55;16.50;;;11.00;;
52934;SDS011;38802;50.198;19.796;2022-12-24T09:30:23;9.90;;;8.40;;
52934;SDS011;38802;50.198;19.796;2022-12-24T09:32:51;10.50;;;7.90;;
52934;SDS011;38802;50.198;19.796;2022-12-24T09:35:19;12.90;;;8.30;;
52934;SDS011;38802;50.198;19.796;2022-12-24T09:37:47;14.10;;;8.70;;
52934;SDS011;38802;50.198;19.796;2022-12-24T09:40:32;15.70;;;10.40;;
52934;SDS011;38802;50.198;19.796;2022-12-24T09:43:12;14.10;;;10.40;;
52934;SDS011;38802;50.198;19.796;2022-12-24T09:48:32;8.20;;;7.40;;
52934;SDS011;38802;50.198;19.796;2022-12-24T09:56:21;12.40;;;7.80;;
52934;SDS011;38802;50.198;19.796;2022-12-24T09:58:58;9.20;;;8.30;;
52934;SDS011;38802;50.198;19.796;2022-12-24T10:01:29;11.10;;;8.80;;
52934;SDS011;38802;50.198;19.796;2022-12-24T10:04:00;8.60;;;7.90;;
52934;SDS011;38802;50.198;19.796;2022-12-24T10:15:25;11.30;;;8.30;;
52934;SDS011;38802;50.198;19.796;2022-12-24T10:21:25;9.60;;;8.70;;
52934;SDS011;38802;50.198;19.796;2022-12-24T10:23:57;13.50;;;7.90;;
52934;SDS011;38802;50.198;19.796;2022-12-24T10:29:34;10.10;;;8.70;;
52934;SDS011;38802;50.198;19.796;2022-12-24T10:34:35;9.70;;;8.50;;
52934;SDS011;38802;50.198;19.796;2022-12-24T10:37:11;14.00;;;9.60;;
52934;SDS011;38802;50.198;19.796;2022-12-24T10:39:43;10.30;;;8.50;;
52934;SDS011;38802;50.198;19.796;2022-12-24T10:42:11;9.40;;;8.00;;
52934;SDS011;38802;50.198;19.796;2022-12-24T10:44:42;10.60;;;8.60;;
52934;SDS011;38802;50.198;19.796;2022-12-24T10:47:17;12.60;;;9.10;;
52934;SDS011;38802;50.198;19.796;2022-12-24T10:49:51;11.50;;;8.80;;
52934;SDS011;38802;50.198;19.796;2022-12-24T10:52:28;10.70;;;9.00;;
52934;SDS011;38802;50.198;19.796;2022-12-24T10:57:46;12.30;;;10.30;;
52934;SDS011;38802;50.198;19.796;2022-12-24T11:00:40;12.50;;;9.90;;
52934;SDS011;38802;50.198;19.796;2022-12-24T11:05:39;19.90;;;11.90;;
52934;SDS011;38802;50.198;19.796;2022-12-24T11:08:15;12.30;;;9.70;;
52934;SDS011;38802;50.198;19.796;2022-12-24T11:10:57;16.30;;;10.40;;
52934;SDS011;38802;50.198;19.796;2022-12-24T11:16:30;13.10;;;10.00;;
52934;SDS011;38802;50.198;19.796;2022-12-24T11:19:01;12.10;;;9.60;;
52934;SDS011;38802;50.198;19.796;2022-12-24T11:21:32;15.70;;;10.20;;
52934;SDS011;38802;50.198;19.796;2022-12-24T11:24:13;13.80;;;9.80;;
52934;SDS011;38802;50.198;19.796;2022-12-24T11:26:52;14.60;;;10.70;;
52934;SDS011;38802;50.198;19.796;2022-12-24T11:29:22;14.10;;;10.10;;
52934;SDS011;38802;50.198;19.796;2022-12-24T11:31:55;13.10;;;9.30;;
52934;SDS011;38802;50.198;19.796;2022-12-24T11:34:43;12.50;;;10.30;;
52934;SDS011;38802;50.198;19.796;2022-12-24T11:37:22;13.10;;;9.90;;
52934;SDS011;38802;50.198;19.796;2022-12-24T11:39:52;13.00;;;9.50;;
52934;SDS011;38802;50.198;19.796;2022-12-24T11:42:25;10.10;;;9.00;;
52934;SDS011;38802;50.198;19.796;2022-12-24T11:44:58;12.60;;;9.80;;
52934;SDS011;38802;50.198;19.796;2022-12-24T11:47:33;10.80;;;9.70;;
52934;SDS011;38802;50.198;19.796;2022-12-24T12:01:19;10.80;;;9.30;;
52934;SDS011;38802;50.198;19.796;2022-12-24T12:03:52;11.70;;;8.60;;
52934;SDS011;38802;50.198;19.796;2022-12-24T12:06:32;8.70;;;7.90;;
52934;SDS011;38802;50.198;19.796;2022-12-24T12:09:19;11.60;;;8.90;;
52934;SDS011;38802;50.198;19.796;2022-12-24T12:11:57;10.30;;;8.20;;
52934;SDS011;38802;50.198;19.796;2022-12-24T12:14:36;12.40;;;8.10;;
52934;SDS011;38802;50.198;19.796;2022-12-24T12:17:13;11.10;;;8.80;;
52934;SDS011;38802;50.198;19.796;2022-12-24T12:19:47;9.30;;;8.20;;
52934;SDS011;38802;50.198;19.796;2022-12-24T12:22:24;8.90;;;8.10;;
52934;SDS011;38802;50.198;19.796;2022-12-24T12:25:09;8.50;;;7.20;;
52934;SDS011;38802;50.198;19.796;2022-12-24T12:27:49;6.50;;;6.00;;
52934;SDS011;38802;50.198;19.796;2022-12-24T12:30:21;7.70;;;5.80;;
52934;SDS011;38802;50.198;19.796;2022-12-24T12:35:46;7.10;;;6.40;;
52934;SDS011;38802;50.198;19.796;2022-12-24T12:38:20;6.00;;;5.50;;
52934;SDS011;38802;50.198;19.796;2022-12-24T12:44:02;5.00;;;4.50;;
52934;SDS011;38802;50.198;19.796;2022-12-24T12:46:43;6.80;;;5.20;;
52934;SDS011;38802;50.198;19.796;2022-12-24T12:57:56;5.60;;;4.90;;
52934;SDS011;38802;50.198;19.796;2022-12-24T13:00:30;5.00;;;4.60;;
52934;SDS011;38802;50.198;19.796;2022-12-24T13:14:02;5.90;;;5.40;;
52934;SDS011;38802;50.198;19.796;2022-12-24T13:22:27;6.80;;;4.80;;
52934;SDS011;38802;50.198;19.796;2022-12-24T13:24:55;4.90;;;4.50;;
52934;SDS011;38802;50.198;19.796;2022-12-24T13:27:25;6.10;;;4.80;;
52934;SDS011;38802;50.198;19.796;2022-12-24T13:29:56;5.80;;;4.80;;
52934;SDS011;38802;50.198;19.796;2022-12-24T13:32:37;5.70;;;5.20;;
52934;SDS011;38802;50.198;19.796;2022-12-24T13:37:47;5.30;;;4.60;;
52934;SDS011;38802;50.198;19.796;2022-12-24T13:40:21;5.60;;;5.00;;
52934;SDS011;38802;50.198;19.796;2022-12-24T13:45:40;6.40;;;5.60;;
52934;SDS011;38802;50.198;19.796;2022-12-24T13:56:09;8.50;;;5.60;;
52934;SDS011;38802;50.198;19.796;2022-12-24T13:59:09;6.40;;;5.50;;
52934;SDS011;38802;50.198;19.796;2022-12-24T14:01:43;6.70;;;6.00;;
52934;SDS011;38802;50.198;19.796;2022-12-24T14:04:20;7.60;;;6.60;;
52934;SDS011;38802;50.198;19.796;2022-12-24T14:06:53;6.40;;;5.80;;
52934;SDS011;38802;50.198;19.796;2022-12-24T14:09:24;9.10;;;6.20;;
52934;SDS011;38802;50.198;19.796;2022-12-24T14:14:26;8.80;;;6.60;;
52934;SDS011;38802;50.198;19.796;2022-12-24T14:17:13;7.60;;;6.80;;
52934;SDS011;38802;50.198;19.796;2022-12-24T14:24:54;9.70;;;7.30;;
52934;SDS011;38802;50.198;19.796;2022-12-24T14:32:35;8.20;;;6.40;;
52934;SDS011;38802;50.198;19.796;2022-12-24T14:35:24;5.90;;;5.40;;
52934;SDS011;38802;50.198;19.796;2022-12-24T14:37:57;7.00;;;6.20;;
52934;SDS011;38802;50.198;19.796;2022-12-24T14:40:29;9.90;;;6.80;;
52934;SDS011;38802;50.198;19.796;2022-12-24T14:43:05;8.70;;;7.50;;
52934;SDS011;38802;50.198;19.796;2022-12-24T14:48:40;8.50;;;6.60;;
52934;SDS011;38802;50.198;19.796;2022-12-24T14:56:32;9.00;;;6.90;;
52934;SDS011;38802;50.198;19.796;2022-12-24T14:59:02;11.50;;;6.80;;
52934;SDS011;38802;50.198;19.796;2022-12-24T15:01:42;7.10;;;6.40;;
52934;SDS011;38802;50.198;19.796;2022-12-24T15:06:40;10.00;;;7.30;;
52934;SDS011;38802;50.198;19.796;2022-12-24T15:09:17;6.50;;;5.80;;
52934;SDS011;38802;50.198;19.796;2022-12-24T15:11:49;30.50;;;20.00;;
52934;SDS011;38802;50.198;19.796;2022-12-24T15:14:27;9.20;;;7.70;;
52934;SDS011;38802;50.198;19.796;2022-12-24T15:17:03;9.10;;;7.90;;
52934;SDS011;38802;50.198;19.796;2022-12-24T15:19:35;8.70;;;7.80;;
52934;SDS011;38802;50.198;19.796;2022-12-24T15:22:11;8.20;;;7.40;;
52934;SDS011;38802;50.198;19.796;2022-12-24T15:24:50;11.60;;;7.90;;
52934;SDS011;38802;50.198;19.796;2022-12-24T15:27:20;10.60;;;8.30;;
52934;SDS011;38802;50.198;19.796;2022-12-24T15:29:52;8.80;;;7.60;;
52934;SDS011;38802;50.198;19.796;2022-12-24T15:32:22;9.90;;;8.90;;
52934;SDS011;38802;50.198;19.796;2022-12-24T15:34:52;10.70;;;8.20;;
52934;SDS011;38802;50.198;19.796;2022-12-24T15:37:29;12.70;;;8.40;;
52934;SDS011;38802;50.198;19.796;2022-12-24T15:40:20;10.10;;;8.40;;
52934;SDS011;38802;50.198;19.796;2022-12-24T15:42:51;9.00;;;7.70;;
52934;SDS011;38802;50.198;19.796;2022-12-24T15:45:27;9.80;;;7.20;;
52934;SDS011;38802;50.198;19.796;2022-12-24T15:47:59;6.80;;;6.10;;
52934;SDS011;38802;50.198;19.796;2022-12-24T15:50:36;8.60;;;5.90;;
52934;SDS011;38802;50.198;19.796;2022-12-24T15:53:14;8.60;;;6.50;;
52934;SDS011;38802;50.198;19.796;2022-12-24T15:56:11;10.50;;;6.30;;
52934;SDS011;38802;50.198;19.796;2022-12-24T15:58:54;8.90;;;7.50;;
52934;SDS011;38802;50.198;19.796;2022-12-24T16:05:17;8.60;;;7.70;;
52934;SDS011;38802;50.198;19.796;2022-12-24T16:07:59;9.60;;;7.00;;
52934;SDS011;38802;50.198;19.796;2022-12-24T16:10:37;14.40;;;8.20;;
52934;SDS011;38802;50.198;19.796;2022-12-24T16:13:41;11.10;;;7.90;;
52934;SDS011;38802;50.198;19.796;2022-12-24T16:16:29;15.00;;;8.30;;
52934;SDS011;38802;50.198;19.796;2022-12-24T16:19:00;13.30;;;7.90;;
52934;SDS011;38802;50.198;19.796;2022-12-24T16:21:31;18.50;;;7.20;;
52934;SDS011;38802;50.198;19.796;2022-12-24T16:24:05;15.40;;;8.80;;
52934;SDS011;38802;50.198;19.796;2022-12-24T16:26:36;12.80;;;8.50;;
52934;SDS011;38802;50.198;19.796;2022-12-24T16:29:17;14.10;;;9.20;;
52934;SDS011;38802;50.198;19.796;2022-12-24T16:31:50;16.70;;;9.30;;
52934;SDS011;38802;50.198;19.796;2022-12-24T16:34:26;20.20;;;9.50;;
52934;SDS011;38802;50.198;19.796;2022-12-24T16:36:56;16.20;;;9.20;;
52934;SDS011;38802;50.198;19.796;2022-12-24T16:39:31;13.20;;;9.20;;
52934;SDS011;38802;50.198;19.796;2022-12-24T16:42:01;14.70;;;9.10;;
52934;SDS011;38802;50.198;19.796;2022-12-24T16:44:51;14.30;;;9.50;;
52934;SDS011;38802;50.198;19.796;2022-12-24T16:47:20;17.50;;;9.00;;
52934;SDS011;38802;50.198;19.796;2022-12-24T16:49:56;14.80;;;8.10;;
52934;SDS011;38802;50.198;19.796;2022-12-24T16:52:26;20.60;;;10.50;;
52934;SDS011;38802;50.198;19.796;2022-12-24T16:54:56;22.20;;;9.50;;
52934;SDS011;38802;50.198;19.796;2022-12-24T16:57:24;14.70;;;10.30;;
52934;SDS011;38802;50.198;19.796;2022-12-24T16:59:53;17.60;;;10.50;;
52934;SDS011;38802;50.198;19.796;2022-12-24T17:02:22;20.30;;;11.40;;
52934;SDS011;38802;50.198;19.796;2022-12-24T17:04:52;22.10;;;12.20;;
52934;SDS011;38802;50.198;19.796;2022-12-24T17:07:20;20.00;;;12.00;;
52934;SDS011;38802;50.198;19.796;2022-12-24T17:09:48;20.40;;;12.60;;
52934;SDS011;38802;50.198;19.796;2022-12-24T17:12:17;20.50;;;13.40;;
52934;SDS011;38802;50.198;19.796;2022-12-24T17:14:45;21.00;;;12.90;;